Time;durP1;ratioP1;P1;durP2;ratioP2;P2;SDS_P1;SDS_P2;PMS_P1;PMS_P2;Temp;Humidity;BMP_temperature;BMP_pressure;BME280_temperature;BME280_humidity;BME280_pressure;Samples;Min_cycle;Max_cycle;Signal;HPM_P1;HPM_P2
2021/04/11 00:00:38;;;;;;;42.50;29.02;;;8.40;99.90;;;;;;4929915;29;20036;-71
2021/04/11 00:03:06;;;;;;;39.85;27.83;;;8.40;99.90;;;;;;4930075;29;20502;-71
2021/04/11 00:05:35;;;;;;;40.10;28.00;;;8.30;99.90;;;;;;4930460;29;20066;-72
2021/04/11 00:08:02;;;;;;;39.70;26.48;;;8.40;99.90;;;;;;4930463;29;20394;-71
2021/04/11 00:10:31;;;;;;;40.10;27.10;;;8.40;99.90;;;;;;4932232;29;20039;-71
2021/04/11 00:12:58;;;;;;;36.88;27.00;;;8.40;99.90;;;;;;4933305;28;20036;-72
2021/04/11 00:15:24;;;;;;;39.63;26.88;;;8.30;99.90;;;;;;4933625;29;20505;-72
2021/04/11 00:17:49;;;;;;;40.55;27.08;;;8.30;99.90;;;;;;4933342;29;20031;-72
2021/04/11 00:20:16;;;;;;;40.53;27.60;;;8.30;99.90;;;;;;4999365;28;20115;-72
2021/04/11 00:22:43;;;;;;;38.55;27.10;;;8.30;99.90;;;;;;4933251;29;20039;-72
2021/04/11 00:25:16;;;;;;;38.90;27.65;;;8.30;99.90;;;;;;4999253;28;20059;-72
2021/04/11 00:27:42;;;;;;;35.55;26.27;;;8.20;99.90;;;;;;4999264;28;20019;-72
2021/04/11 00:30:09;;;;;;;42.03;28.15;;;8.20;99.90;;;;;;4999298;28;20078;-72
2021/04/11 00:32:35;;;;;;;43.17;27.85;;;8.20;99.90;;;;;;4998535;28;20560;-72
2021/04/11 00:35:00;;;;;;;42.80;27.90;;;8.10;99.90;;;;;;4999135;28;20036;-72
2021/04/11 00:37:26;;;;;;;42.80;28.25;;;8.10;99.90;;;;;;4933582;29;20028;-72
2021/04/11 00:39:51;;;;;;;43.67;29.02;;;8.20;99.90;;;;;;4933061;29;20039;-71
2021/04/11 00:42:24;;;;;;;40.00;26.35;;;8.20;99.90;;;;;;4932894;29;20508;-72
2021/04/11 00:44:50;;;;;;;40.92;28.20;;;8.20;99.90;;;;;;4998947;28;20027;-72
2021/04/11 00:47:16;;;;;;;40.92;27.70;;;8.20;99.90;;;;;;4932991;29;20073;-71
2021/04/11 00:49:46;;;;;;;40.00;27.88;;;8.10;99.90;;;;;;4933102;29;20479;-71
2021/04/11 00:52:14;;;;;;;40.08;28.05;;;8.20;99.90;;;;;;4932694;29;20031;-71
2021/04/11 00:54:41;;;;;;;39.42;27.23;;;8.20;99.90;;;;;;4932917;29;20062;-71
2021/04/11 00:57:08;;;;;;;41.45;27.70;;;8.10;99.90;;;;;;4998611;28;20035;-72
2021/04/11 00:59:34;;;;;;;42.97;27.55;;;8.10;99.90;;;;;;4932987;29;20038;-72
2021/04/11 01:02:01;;;;;;;39.67;27.73;;;8.00;99.90;;;;;;4932190;29;20500;-71
2021/04/11 01:04:27;;;;;;;43.78;29.20;;;8.10;99.90;;;;;;4932801;29;20036;-71
2021/04/11 01:07:04;;;;;;;38.63;27.52;;;8.10;99.90;;;;;;4932750;29;20577;-72
2021/04/11 01:09:38;;;;;;;40.47;27.75;;;8.20;99.90;;;;;;4932767;29;20024;-71
2021/04/11 01:12:10;;;;;;;40.25;28.13;;;8.30;99.90;;;;;;4932430;29;20024;-71
2021/04/11 01:14:37;;;;;;;43.17;28.70;;;8.40;99.90;;;;;;4932589;29;20028;-71
2021/04/11 01:17:08;;;;;;;42.30;29.42;;;8.40;99.90;;;;;;4998234;28;20105;-72
2021/04/11 01:19:38;;;;;;;40.38;29.00;;;8.30;99.90;;;;;;4932551;29;20034;-71
2021/04/11 01:22:23;;;;;;;45.78;29.33;;;8.30;99.90;;;;;;4932344;29;20016;-72
2021/04/11 01:24:56;;;;;;;42.55;28.65;;;8.20;99.90;;;;;;4932466;29;20027;-72
2021/04/11 01:27:29;;;;;;;42.13;28.85;;;8.20;99.90;;;;;;4932333;29;20032;-72
2021/04/11 01:29:56;;;;;;;41.08;27.98;;;8.20;99.90;;;;;;4932218;29;20075;-71
2021/04/11 01:32:22;;;;;;;42.97;29.10;;;8.30;99.90;;;;;;4932379;29;20386;-71
2021/04/11 01:34:52;;;;;;;41.67;28.95;;;8.30;99.90;;;;;;4932339;29;20102;-71
2021/04/11 01:37:20;;;;;;;40.35;29.33;;;8.30;99.90;;;;;;4932638;29;20560;-71
2021/04/11 01:39:46;;;;;;;41.08;28.63;;;8.30;99.90;;;;;;4997996;28;20037;-71
2021/04/11 01:42:15;;;;;;;46.40;30.88;;;8.40;99.90;;;;;;4931979;29;20108;-71
2021/04/11 01:44:43;;;;;;;44.20;30.42;;;8.50;99.90;;;;;;4997743;28;20024;-71
2021/04/11 01:47:09;;;;;;;44.88;30.05;;;8.40;99.90;;;;;;4932138;29;20082;-72
2021/04/11 01:49:36;;;;;;;45.10;29.98;;;8.40;99.90;;;;;;4932246;29;20028;-72
2021/04/11 01:52:07;;;;;;;43.88;29.60;;;8.40;99.90;;;;;;4997583;28;20028;-71
2021/04/11 01:54:35;;;;;;;46.63;30.20;;;8.30;99.90;;;;;;4931978;29;20032;-71
2021/04/11 01:57:16;;;;;;;40.22;28.70;;;8.30;99.90;;;;;;4931995;29;20481;-71
2021/04/11 01:59:41;;;;;;;39.83;28.85;;;8.30;99.90;;;;;;4997531;28;20040;-72
2021/04/11 02:02:07;;;;;;;41.72;28.42;;;8.20;99.90;;;;;;4931767;29;20222;-71
2021/04/11 02:04:33;;;;;;;38.90;27.13;;;8.30;99.90;;;;;;4997573;28;20024;-71
2021/04/11 02:07:02;;;;;;;39.80;27.60;;;8.30;99.90;;;;;;4931926;29;20051;-71
2021/04/11 02:09:36;;;;;;;39.97;28.45;;;8.20;99.90;;;;;;4931826;29;20024;-71
2021/04/11 02:12:04;;;;;;;40.92;27.98;;;8.20;99.90;;;;;;4997454;28;20518;-72
2021/04/11 02:14:30;;;;;;;41.90;26.42;;;8.10;99.90;;;;;;4931771;29;20028;-71
2021/04/11 02:16:56;;;;;;;40.10;27.25;;;8.20;99.90;;;;;;4931763;29;20084;-72
2021/04/11 02:19:25;;;;;;;41.63;27.35;;;8.20;99.90;;;;;;4997389;28;20023;-71
2021/04/11 02:21:57;;;;;;;40.25;26.55;;;8.30;99.90;;;;;;4931488;29;20508;-71
2021/04/11 02:24:23;;;;;;;41.90;25.60;;;8.20;99.90;;;;;;4932152;29;20052;-72
2021/04/11 02:26:49;;;;;;;37.00;26.83;;;8.20;99.90;;;;;;4931782;29;20107;-71
2021/04/11 02:29:17;;;;;;;40.38;27.23;;;8.30;99.90;;;;;;4931590;29;20387;-71
2021/04/11 02:31:43;;;;;;;36.58;25.63;;;8.30;99.90;;;;;;4996820;28;20035;-71
2021/04/11 02:34:13;;;;;;;40.17;27.48;;;8.30;99.90;;;;;;4996961;28;20031;-71
2021/04/11 02:36:57;;;;;;;37.47;24.60;;;8.30;99.90;;;;;;4996935;28;20032;-72
2021/04/11 02:39:28;;;;;;;34.22;24.38;;;8.30;99.90;;;;;;4996767;28;20506;-72
2021/04/11 02:41:56;;;;;;;41.70;27.95;;;8.30;99.90;;;;;;4931301;29;20119;-71
2021/04/11 02:44:22;;;;;;;36.85;25.63;;;8.20;99.90;;;;;;4931360;29;20031;-71
2021/04/11 02:46:48;;;;;;;35.95;24.75;;;8.20;99.90;;;;;;4931276;29;20023;-71
2021/04/11 02:49:18;;;;;;;35.78;24.50;;;8.20;99.90;;;;;;4995739;28;20024;-71
2021/04/11 02:51:45;;;;;;;40.83;25.33;;;8.20;99.90;;;;;;4996474;28;20028;-71
2021/04/11 02:54:14;;;;;;;36.92;24.98;;;8.10;99.90;;;;;;4931153;29;20039;-71
2021/04/11 02:56:42;;;;;;;35.47;25.10;;;8.00;99.90;;;;;;4931089;29;20028;-71
2021/04/11 02:59:10;;;;;;;37.20;25.02;;;8.00;99.90;;;;;;4930960;29;20043;-71
2021/04/11 03:01:40;;;;;;;33.97;23.73;;;8.00;99.90;;;;;;4996352;28;20517;-71
2021/04/11 03:04:06;;;;;;;34.85;24.45;;;8.00;99.90;;;;;;4931222;29;20039;-71
2021/04/11 03:06:36;;;;;;;37.33;23.80;;;7.90;99.90;;;;;;4931012;29;20292;-72
2021/04/11 03:09:10;;;;;;;38.17;24.20;;;7.90;99.90;;;;;;4931051;29;20558;-71
2021/04/11 03:11:41;;;;;;;33.33;22.33;;;7.90;99.90;;;;;;4930781;29;20042;-72
2021/04/11 03:14:09;;;;;;;33.03;23.13;;;7.90;99.90;;;;;;4931146;28;20066;-71
2021/04/11 03:16:37;;;;;;;30.42;21.75;;;7.90;99.90;;;;;;4930936;29;20039;-72
2021/04/11 03:19:03;;;;;;;34.42;23.75;;;7.80;99.90;;;;;;4930857;29;20528;-72
2021/04/11 03:21:29;;;;;;;28.83;20.48;;;7.90;99.90;;;;;;4930640;29;20039;-72
2021/04/11 03:23:56;;;;;;;31.45;20.65;;;7.80;99.90;;;;;;4930824;29;20038;-72
2021/04/11 03:26:46;;;;;;;29.15;21.23;;;7.80;99.90;;;;;;4930842;29;20553;-71
2021/04/11 03:29:23;;;;;;;30.23;20.65;;;7.80;99.90;;;;;;4930874;29;20028;-71
2021/04/11 03:31:51;;;;;;;28.67;19.38;;;7.80;99.90;;;;;;4930544;29;20046;-71
2021/04/11 03:34:19;;;;;;;27.15;18.60;;;7.80;99.90;;;;;;4996164;28;20036;-71
2021/04/11 03:36:45;;;;;;;25.55;16.85;;;7.80;99.90;;;;;;4930800;29;20028;-71
2021/04/11 03:39:12;;;;;;;25.48;17.48;;;7.80;99.90;;;;;;4930635;29;20127;-72
2021/04/11 03:41:39;;;;;;;28.35;17.77;;;7.90;99.90;;;;;;4930484;29;20031;-71
2021/04/11 03:44:09;;;;;;;24.65;16.85;;;7.80;99.90;;;;;;4930846;29;20020;-72
2021/04/11 03:46:43;;;;;;;25.23;16.67;;;7.80;99.90;;;;;;5000337;28;20363;-71
2021/04/11 03:49:31;;;;;;;24.35;15.00;;;7.70;99.90;;;;;;4934051;29;20457;-71
2021/04/11 03:52:01;;;;;;;22.95;14.57;;;7.70;99.90;;;;;;4933813;29;20099;-71
2021/04/11 03:54:33;;;;;;;22.20;14.43;;;7.80;99.90;;;;;;4933866;29;20482;-71
2021/04/11 03:57:07;;;;;;;20.67;14.23;;;7.80;99.90;;;;;;4934334;29;20430;-71
2021/04/11 03:59:41;;;;;;;22.35;13.20;;;7.70;99.90;;;;;;4933771;29;20090;-71
2021/04/11 04:02:08;;;;;;;18.92;12.60;;;7.70;99.90;;;;;;4998980;28;20494;-72
2021/04/11 04:04:38;;;;;;;20.50;12.27;;;7.60;99.90;;;;;;4923044;28;20083;-72
2021/04/11 04:07:12;;;;;;;22.35;13.38;;;7.60;99.90;;;;;;4988259;28;20017;-71
2021/04/11 04:09:39;;;;;;;20.15;13.23;;;7.50;99.90;;;;;;4923370;28;20032;-71
2021/04/11 04:12:34;;;;;;;22.10;13.45;;;7.50;99.90;;;;;;4924400;29;20474;-71
2021/04/11 04:15:15;;;;;;;27.45;15.00;;;7.50;99.90;;;;;;4924661;29;20027;-71
2021/04/11 04:18:12;;;;;;;21.63;12.60;;;7.50;99.90;;;;;;4924619;29;20050;-71
2021/04/11 04:20:59;;;;;;;18.50;10.85;;;7.40;99.90;;;;;;4924603;29;20260;-71
2021/04/11 04:23:47;;;;;;;15.10;9.65;;;7.50;99.90;;;;;;4931338;29;20058;-72
2021/04/11 04:26:33;;;;;;;17.75;10.55;;;7.50;99.90;;;;;;4924532;29;20086;-71
2021/04/11 04:29:18;;;;;;;15.05;10.63;;;7.40;99.90;;;;;;4990150;28;20055;-72
2021/04/11 04:32:20;;;;;;;15.77;9.88;;;7.30;99.90;;;;;;4982366;28;20078;-72
2021/04/11 04:35:14;;;;;;;15.50;9.82;;;7.20;99.90;;;;;;4979850;28;20127;-71
2021/04/11 04:37:56;;;;;;;16.42;10.40;;;7.20;99.90;;;;;;4914252;29;20035;-72
2021/04/11 04:40:59;;;;;;;17.00;8.68;;;7.30;99.90;;;;;;4914040;28;20040;-71
2021/04/11 04:43:44;;;;;;;18.55;9.65;;;7.30;99.90;;;;;;4914008;29;20086;-72
2021/04/11 04:46:16;;;;;;;14.93;9.70;;;7.30;99.90;;;;;;4914260;29;20031;-72
2021/04/11 04:49:13;;;;;;;13.40;9.30;;;7.30;99.90;;;;;;4914108;29;20028;-72
2021/04/11 04:51:51;;;;;;;14.75;9.50;;;7.30;99.90;;;;;;4979342;28;20035;-72
2021/04/11 04:54:19;;;;;;;15.70;9.52;;;7.30;99.90;;;;;;4914091;29;20036;-72
2021/04/11 04:56:52;;;;;;;12.93;9.15;;;7.30;99.90;;;;;;4978900;28;20028;-72
2021/04/11 04:59:24;;;;;;;13.95;9.60;;;7.30;99.90;;;;;;4985463;23;20039;-71
2021/04/11 05:01:58;;;;;;;16.52;9.68;;;7.40;99.90;;;;;;4931958;29;20110;-71
2021/04/11 05:04:27;;;;;;;16.40;9.63;;;7.30;99.90;;;;;;4931502;28;20028;-71
2021/04/11 05:06:59;;;;;;;16.60;9.85;;;7.30;99.90;;;;;;4932768;28;20023;-72
2021/04/11 05:09:31;;;;;;;14.10;9.32;;;7.40;99.90;;;;;;4932611;29;20020;-70
2021/04/11 05:12:26;;;;;;;12.70;9.35;;;7.40;99.90;;;;;;4930608;28;20027;-70
2021/04/11 05:14:59;;;;;;;14.25;8.48;;;7.50;99.90;;;;;;4931398;29;20031;-70
2021/04/11 05:17:29;;;;;;;12.85;8.70;;;7.60;99.90;;;;;;4932431;28;20024;-70
2021/04/11 05:20:01;;;;;;;12.63;8.35;;;7.60;99.90;;;;;;4932371;28;20085;-71
2021/04/11 05:22:36;;;;;;;13.80;8.52;;;7.60;99.90;;;;;;4932321;29;20032;-70
2021/04/11 05:25:19;;;;;;;12.55;8.25;;;7.70;99.90;;;;;;4932520;28;20501;-71
2021/04/11 05:28:02;;;;;;;15.15;9.75;;;7.60;99.90;;;;;;4932362;29;20058;-71
2021/04/11 05:30:42;;;;;;;15.65;8.80;;;7.60;99.90;;;;;;4932897;29;20051;-71
2021/04/11 05:33:17;;;;;;;14.98;10.43;;;7.40;99.90;;;;;;4931882;28;20379;-71
2021/04/11 05:35:44;;;;;;;18.42;10.88;;;7.40;99.90;;;;;;4932514;29;20020;-71
2021/04/11 05:38:22;;;;;;;18.48;11.32;;;7.40;99.90;;;;;;4932360;28;20083;-71
2021/04/11 05:40:55;;;;;;;21.15;11.60;;;7.50;99.90;;;;;;4932352;28;20067;-70
2021/04/11 05:43:41;;;;;;;17.45;10.32;;;7.50;99.90;;;;;;4931907;28;20024;-70
2021/04/11 05:46:19;;;;;;;18.13;10.32;;;7.60;99.90;;;;;;4932547;28;20020;-70
2021/04/11 05:49:05;;;;;;;17.00;11.65;;;7.70;99.90;;;;;;4931083;28;20066;-70
2021/04/11 05:51:43;;;;;;;17.67;11.00;;;7.80;99.90;;;;;;4931619;28;20044;-71
2021/04/11 05:54:19;;;;;;;17.75;11.23;;;7.80;99.90;;;;;;4931994;28;20094;-70
2021/04/11 05:56:52;;;;;;;19.67;11.98;;;7.90;99.90;;;;;;4932149;28;20028;-71
2021/04/11 05:59:24;;;;;;;23.42;14.27;;;8.00;99.90;;;;;;4931935;29;20127;-71
2021/04/11 06:01:52;;;;;;;27.17;19.40;;;8.10;99.90;;;;;;4931238;28;20031;-71
2021/04/11 06:04:26;;;;;;;28.92;22.45;;;8.10;99.90;;;;;;4930570;28;20115;-71
2021/04/11 06:07:28;;;;;;;30.45;22.10;;;8.20;99.90;;;;;;4931202;29;20046;-70
2021/04/11 06:10:18;;;;;;;31.77;21.05;;;8.30;99.90;;;;;;4989745;28;20496;-71
2021/04/11 06:13:08;;;;;;;28.00;20.80;;;8.30;99.90;;;;;;4972905;28;20040;-71
2021/04/11 06:15:39;;;;;;;33.08;22.15;;;8.40;99.90;;;;;;4989846;28;20045;-71
2021/04/11 06:18:07;;;;;;;29.13;20.85;;;8.40;99.90;;;;;;4989537;28;20066;-71
2021/04/11 06:20:34;;;;;;;31.20;21.48;;;8.40;99.90;;;;;;4989750;28;20061;-71
2021/04/11 06:23:31;;;;;;;30.63;20.33;;;8.50;99.90;;;;;;4972582;28;20026;-71
2021/04/11 06:26:12;;;;;;;28.23;19.75;;;8.60;99.90;;;;;;4988863;28;20028;-70
2021/04/11 06:28:48;;;;;;;28.15;19.95;;;8.70;99.90;;;;;;4989523;28;20030;-70
2021/04/11 06:31:38;;;;;;;26.48;18.38;;;8.80;99.90;;;;;;4989163;28;20038;-71
2021/04/11 06:34:19;;;;;;;30.52;19.88;;;8.90;99.90;;;;;;4989368;28;20037;-71
2021/04/11 06:36:48;;;;;;;25.50;19.52;;;9.00;99.90;;;;;;4989489;28;20096;-71
2021/04/11 06:39:27;;;;;;;29.85;20.45;;;9.10;99.90;;;;;;4988730;28;20038;-71
2021/04/11 06:42:26;;;;;;;22.10;16.10;;;9.10;99.90;;;;;;4988561;28;20102;-71
2021/04/11 06:45:17;;;;;;;24.30;17.23;;;9.20;99.90;;;;;;4974995;28;20040;-71
2021/04/11 06:48:20;;;;;;;26.67;17.77;;;9.30;99.90;;;;;;4931325;29;20502;-70
2021/04/11 06:51:12;;;;;;;23.60;16.38;;;9.40;99.90;;;;;;4931446;29;20515;-70
2021/04/11 06:53:40;;;;;;;27.65;17.30;;;9.50;99.90;;;;;;4930865;29;20110;-70
2021/04/11 06:56:16;;;;;;;24.23;16.17;;;9.50;99.90;;;;;;4931087;28;20090;-70
2021/04/11 06:59:19;;;;;;;23.35;16.35;;;9.60;99.90;;;;;;4931033;28;20517;-70
2021/04/11 07:02:03;;;;;;;23.90;16.15;;;9.70;99.90;;;;;;4930326;29;20535;-72
2021/04/11 07:04:49;;;;;;;23.95;15.35;;;9.90;99.90;;;;;;4931129;29;20024;-71
2021/04/11 07:07:29;;;;;;;19.73;13.98;;;10.00;99.90;;;;;;4960349;28;20062;-71
2021/04/11 07:10:25;;;;;;;21.05;14.63;;;10.10;99.90;;;;;;4930911;29;20028;-71
2021/04/11 07:12:57;;;;;;;17.85;12.52;;;10.20;99.90;;;;;;4930096;29;20117;-71
2021/04/11 07:15:44;;;;;;;20.55;13.40;;;10.30;99.90;;;;;;4930931;29;20456;-71
2021/04/11 07:18:15;;;;;;;21.05;13.13;;;10.40;99.90;;;;;;4929474;29;20518;-71
2021/04/11 07:21:09;;;;;;;18.42;12.65;;;10.50;99.90;;;;;;4930764;28;20032;-71
2021/04/11 07:23:49;;;;;;;18.98;11.68;;;10.60;99.90;;;;;;4929012;28;20391;-70
2021/04/11 07:26:35;;;;;;;24.15;11.10;;;10.80;99.90;;;;;;4930865;29;20418;-71
2021/04/11 07:29:16;;;;;;;17.02;11.05;;;11.00;99.90;;;;;;4929580;28;20024;-71
2021/04/11 07:32:19;;;;;;;17.25;10.65;;;11.10;99.90;;;;;;4928859;29;20055;-70
2021/04/11 07:35:15;;;;;;;20.83;10.57;;;11.30;99.90;;;;;;4930785;28;20122;-70
2021/04/11 07:38:05;;;;;;;13.77;8.80;;;11.60;99.90;;;;;;4929325;29;20032;-71
2021/04/11 07:40:45;;;;;;;14.63;9.27;;;11.80;99.90;;;;;;4929311;28;20040;-71
2021/04/11 07:43:44;;;;;;;12.70;8.00;;;12.10;99.90;;;;;;4929992;28;20264;-71
2021/04/11 07:46:21;;;;;;;13.40;8.10;;;12.30;99.90;;;;;;4930636;29;20107;-72
2021/04/11 07:49:11;;;;;;;12.63;7.75;;;12.50;99.90;;;;;;4929166;28;20031;-71
2021/04/11 07:51:36;;;;;;;14.02;7.50;;;12.60;99.90;;;;;;4928499;28;20126;-71
2021/04/11 07:54:21;;;;;;;16.58;8.38;;;12.70;99.90;;;;;;4930368;28;20112;-71
2021/04/11 07:57:06;;;;;;;13.20;7.30;;;12.70;99.90;;;;;;4930360;28;20046;-71
2021/04/11 07:59:46;;;;;;;12.95;6.90;;;12.90;99.90;;;;;;4930296;28;20104;-71
2021/04/11 08:02:41;;;;;;;13.70;6.78;;;13.00;98.80;;;;;;4929771;28;20028;-71
2021/04/11 08:05:25;;;;;;;11.90;6.32;;;13.20;98.20;;;;;;4928937;29;20024;-72
2021/04/11 08:08:18;;;;;;;8.45;4.65;;;13.40;98.80;;;;;;4930206;28;20024;-71
2021/04/11 08:11:18;;;;;;;11.95;5.07;;;13.60;97.10;;;;;;4930334;29;20035;-71
2021/04/11 08:14:17;;;;;;;13.60;5.82;;;14.00;97.90;;;;;;4929048;28;20032;-71
2021/04/11 08:17:00;;;;;;;10.23;4.88;;;14.10;97.30;;;;;;4930687;28;20034;-71
2021/04/11 08:20:04;;;;;;;11.32;4.93;;;14.20;95.30;;;;;;4930475;28;20039;-71
2021/04/11 08:23:02;;;;;;;9.15;4.78;;;14.40;94.10;;;;;;4929529;28;20028;-71
2021/04/11 08:25:48;;;;;;;8.75;4.90;;;14.60;94.30;;;;;;4929166;29;20024;-71
2021/04/11 08:28:51;;;;;;;9.23;4.93;;;14.80;93.70;;;;;;4928927;28;20070;-71
2021/04/11 08:31:38;;;;;;;10.05;4.53;;;15.10;92.30;;;;;;4930003;29;20050;-71
2021/04/11 08:34:48;;;;;;;9.70;4.32;;;15.40;91.20;;;;;;4932276;28;20375;-71
2021/04/11 08:37:43;;;;;;;8.45;4.60;;;15.80;90.10;;;;;;4933405;29;20020;-71
2021/04/11 08:40:33;;;;;;;8.45;4.18;;;15.90;90.00;;;;;;4933281;28;20154;-71
2021/04/11 08:43:19;;;;;;;8.20;3.63;;;16.10;90.00;;;;;;4960058;28;20101;-71
2021/04/11 08:46:06;;;;;;;6.70;3.97;;;16.10;90.40;;;;;;4933324;28;20355;-71
2021/04/11 08:49:05;;;;;;;10.93;3.58;;;16.20;86.90;;;;;;4931802;29;20039;-71
2021/04/11 08:52:13;;;;;;;9.77;4.20;;;16.20;88.10;;;;;;4931181;29;20055;-71
2021/04/11 08:54:44;;;;;;;9.73;3.75;;;16.50;87.80;;;;;;4932941;29;20042;-71
2021/04/11 08:57:33;;;;;;;8.35;4.03;;;16.60;88.60;;;;;;4933043;28;20405;-71
2021/04/11 09:00:11;;;;;;;9.52;3.83;;;16.70;86.90;;;;;;4932799;29;20446;-71
2021/04/11 09:02:52;;;;;;;6.97;3.65;;;17.10;87.70;;;;;;4932217;29;20529;-71
2021/04/11 09:05:36;;;;;;;6.82;2.75;;;17.20;85.00;;;;;;4932838;28;20105;-71
2021/04/11 09:08:43;;;;;;;7.65;3.08;;;17.30;81.20;;;;;;4932659;28;20028;-71
2021/04/11 09:11:29;;;;;;;7.15;2.70;;;17.40;80.70;;;;;;4964044;28;20131;-71
2021/04/11 09:14:23;;;;;;;8.27;2.97;;;17.20;79.60;;;;;;4932604;28;20107;-71
2021/04/11 09:17:26;;;;;;;5.88;2.53;;;17.10;80.30;;;;;;4932617;28;20027;-71
2021/04/11 09:20:02;;;;;;;7.78;3.40;;;17.20;82.80;;;;;;4931067;28;20394;-71
2021/04/11 09:22:53;;;;;;;12.07;3.15;;;17.40;82.60;;;;;;4931713;28;20370;-71
2021/04/11 09:25:22;;;;;;;7.45;2.58;;;17.30;78.20;;;;;;4932505;29;20028;-71
2021/04/11 09:28:21;;;;;;;8.27;2.95;;;17.50;86.40;;;;;;4931106;28;20032;-71
2021/04/11 09:30:53;;;;;;;6.38;3.13;;;17.50;79.40;;;;;;4932384;29;20532;-72
2021/04/11 09:33:46;;;;;;;7.68;3.15;;;17.50;79.80;;;;;;4931751;28;20066;-72
2021/04/11 09:36:33;;;;;;;6.57;3.10;;;17.50;78.70;;;;;;4932362;28;20023;-71
2021/04/11 09:38:58;;;;;;;6.68;2.55;;;17.50;80.40;;;;;;4932212;28;20040;-71
2021/04/11 09:41:39;;;;;;;6.40;2.70;;;17.40;80.80;;;;;;4931188;28;20024;-71
2021/04/11 09:44:19;;;;;;;7.72;3.10;;;17.50;78.80;;;;;;4931806;28;20028;-72
2021/04/11 09:46:57;;;;;;;4.55;2.30;;;17.60;77.50;;;;;;4932317;28;20024;-71
2021/04/11 09:49:31;;;;;;;6.22;2.40;;;17.70;78.10;;;;;;4932210;28;20038;-71
2021/04/11 09:51:56;;;;;;;6.30;2.92;;;17.80;77.90;;;;;;4931540;28;20028;-71
2021/04/11 09:54:44;;;;;;;6.38;2.65;;;17.80;77.00;;;;;;4932099;28;20034;-71
2021/04/11 09:57:49;;;;;;;8.82;2.90;;;17.80;76.10;;;;;;4932057;28;20031;-71
2021/04/11 10:00:26;;;;;;;5.20;2.40;;;17.90;76.20;;;;;;4989913;28;20505;-71
2021/04/11 10:03:16;;;;;;;4.97;2.40;;;17.90;78.30;;;;;;4989388;28;20169;-71
2021/04/11 10:06:00;;;;;;;4.10;2.03;;;18.00;75.20;;;;;;4990016;28;20027;-71
2021/04/11 10:08:45;;;;;;;5.13;2.30;;;18.00;75.90;;;;;;4990041;28;20034;-71
2021/04/11 10:11:52;;;;;;;5.28;1.83;;;18.10;72.20;;;;;;4989762;28;20034;-71
2021/04/11 10:14:45;;;;;;;6.38;2.53;;;18.10;72.00;;;;;;4973538;28;20022;-71
2021/04/11 10:17:33;;;;;;;6.22;2.67;;;18.10;74.40;;;;;;4989898;28;20034;-71
2021/04/11 10:20:17;;;;;;;4.07;1.80;;;18.10;73.30;;;;;;4989721;28;20030;-71
2021/04/11 10:23:05;;;;;;;3.83;1.95;;;18.20;77.30;;;;;;4989232;28;20042;-71
2021/04/11 10:25:36;;;;;;;4.28;1.85;;;18.50;73.50;;;;;;4973637;28;20023;-71
2021/04/11 10:28:17;;;;;;;5.55;1.88;;;18.60;81.30;;;;;;4990008;28;20468;-71
2021/04/11 10:30:55;;;;;;;4.85;1.98;;;18.80;78.40;;;;;;4989728;28;20038;-71
2021/04/11 10:33:35;;;;;;;8.10;2.10;;;18.90;72.70;;;;;;4988978;28;20523;-71
2021/04/11 10:36:22;;;;;;;4.78;1.63;;;18.90;71.30;;;;;;4972714;28;20214;-71
2021/04/11 10:39:15;;;;;;;4.55;2.00;;;19.20;72.00;;;;;;4931450;29;20035;-71
2021/04/11 10:42:22;;;;;;;5.20;1.63;;;19.60;70.30;;;;;;4930943;28;20032;-71
2021/04/11 10:45:20;;;;;;;5.53;1.58;;;20.00;69.70;;;;;;4931523;28;20519;-72
2021/04/11 10:48:12;;;;;;;5.55;2.08;;;20.10;66.20;;;;;;4931092;28;20063;-71
2021/04/11 10:50:40;;;;;;;4.05;1.40;;;19.90;64.70;;;;;;4931268;29;20028;-71
2021/04/11 10:53:37;;;;;;;5.55;1.58;;;19.90;63.90;;;;;;4930238;28;20063;-71
2021/04/11 10:56:19;;;;;;;4.82;1.80;;;19.70;68.20;;;;;;4930100;28;20482;-72
2021/04/11 10:59:14;;;;;;;4.20;1.63;;;19.80;67.50;;;;;;4939210;23;20143;-72
2021/04/11 11:02:18;;;;;;;3.22;1.58;;;20.00;65.80;;;;;;4892955;28;20067;-72
2021/04/11 11:05:04;;;;;;;3.92;1.58;;;20.20;64.80;;;;;;4893303;29;20052;-72
2021/04/11 11:07:49;;;;;;;5.60;2.00;;;20.30;62.00;;;;;;4957851;28;20039;-72
2021/04/11 11:10:18;;;;;;;4.60;1.70;;;20.30;61.30;;;;;;4893707;28;20029;-72
2021/04/11 11:13:26;;;;;;;4.10;1.10;;;20.10;61.10;;;;;;4892437;29;20025;-72
2021/04/11 11:16:18;;;;;;;3.50;1.20;;;20.00;61.40;;;;;;4893100;28;20113;-72
2021/04/11 11:18:58;;;;;;;4.72;1.30;;;20.00;62.70;;;;;;4893052;28;20398;-72
2021/04/11 11:21:31;;;;;;;4.25;1.70;;;20.20;62.90;;;;;;4892348;29;20039;-72
2021/04/11 11:24:12;;;;;;;6.10;1.77;;;20.30;64.50;;;;;;4957848;28;20493;-73
2021/04/11 11:26:40;;;;;;;6.07;1.75;;;20.50;65.10;;;;;;4893421;29;20036;-72
2021/04/11 11:29:25;;;;;;;2.35;1.25;;;20.80;65.60;;;;;;4892903;29;20149;-72
2021/04/11 11:32:10;;;;;;;5.28;2.00;;;21.20;61.10;;;;;;4956815;28;20317;-72
2021/04/11 11:35:12;;;;;;;3.60;1.60;;;21.30;59.50;;;;;;4893030;28;20387;-72
2021/04/11 11:37:49;;;;;;;3.80;1.48;;;21.40;59.20;;;;;;4957338;28;20367;-73
2021/04/11 11:40:34;;;;;;;4.03;1.45;;;21.10;60.00;;;;;;4892825;28;20483;-73
2021/04/11 11:43:02;;;;;;;5.53;1.88;;;20.90;60.00;;;;;;4956802;28;20127;-72
2021/04/11 11:45:39;;;;;;;4.38;1.48;;;20.60;60.50;;;;;;4892825;28;20021;-72
2021/04/11 11:48:33;;;;;;;4.15;1.30;;;20.60;60.60;;;;;;4892577;29;20028;-72
2021/04/11 11:51:06;;;;;;;4.45;1.77;;;20.50;59.20;;;;;;4957298;28;20367;-72
2021/04/11 11:53:38;;;;;;;4.38;1.40;;;20.50;60.40;;;;;;4892096;28;20509;-72
2021/04/11 11:56:19;;;;;;;5.18;1.60;;;20.70;60.90;;;;;;4892615;28;20067;-72
2021/04/11 11:58:54;;;;;;;4.97;1.55;;;20.80;60.70;;;;;;4892501;28;20036;-72
2021/04/11 12:01:51;;;;;;;6.45;1.60;;;20.80;59.80;;;;;;4891940;28;20080;-72
2021/04/11 12:04:57;;;;;;;7.15;2.80;;;20.70;62.60;;;;;;4892631;28;20025;-72
2021/04/11 12:07:44;;;;;;;5.35;1.60;;;20.70;59.90;;;;;;4960894;28;20028;-72
2021/04/11 12:10:25;;;;;;;4.70;1.33;;;20.80;60.90;;;;;;4960595;28;20029;-72
2021/04/11 12:13:04;;;;;;;4.65;1.50;;;21.00;60.10;;;;;;4960166;28;20028;-72
2021/04/11 12:15:47;;;;;;;3.25;1.48;;;21.90;58.90;;;;;;4895781;28;20036;-73
2021/04/11 12:18:20;;;;;;;3.65;1.48;;;23.30;56.20;;;;;;4895839;28;20603;-73
2021/04/11 12:21:04;;;;;;;2.92;1.13;;;24.10;51.60;;;;;;4896050;28;20056;-72
2021/04/11 12:23:39;;;;;;;4.28;1.73;;;24.00;52.10;;;;;;4894999;29;20024;-72
2021/04/11 12:26:06;;;;;;;6.30;1.80;;;24.10;52.90;;;;;;4961033;28;20071;-72
2021/04/11 12:28:32;;;;;;;5.00;1.55;;;23.40;52.50;;;;;;4960787;28;20123;-72
2021/04/11 12:31:11;;;;;;;4.40;1.63;;;22.60;53.10;;;;;;4960526;28;20028;-72
2021/04/11 12:34:00;;;;;;;4.50;1.50;;;22.00;53.50;;;;;;4895351;28;20171;-72
2021/04/11 12:36:29;;;;;;;4.90;1.80;;;21.70;56.40;;;;;;4895530;28;20395;-72
2021/04/11 12:39:23;;;;;;;3.30;1.30;;;21.50;55.80;;;;;;4895424;29;20029;-73
2021/04/11 12:42:16;;;;;;;4.85;1.80;;;21.30;56.10;;;;;;4896504;28;20041;-72
2021/04/11 12:44:45;;;;;;;3.83;1.40;;;21.00;57.60;;;;;;4895365;28;20025;-73
2021/04/11 12:47:29;;;;;;;3.47;1.30;;;20.90;57.20;;;;;;4960411;28;20025;-73
2021/04/11 12:50:06;;;;;;;4.40;1.80;;;20.80;59.20;;;;;;4895166;29;20031;-72
2021/04/11 12:52:40;;;;;;;6.43;1.75;;;20.70;59.30;;;;;;4959454;28;20562;-72
2021/04/11 12:55:06;;;;;;;6.90;1.77;;;20.80;57.90;;;;;;4960086;28;20032;-72
2021/04/11 12:57:43;;;;;;;5.43;1.60;;;20.80;59.40;;;;;;4895075;29;20095;-72
2021/04/11 13:00:22;;;;;;;5.05;1.58;;;20.90;57.00;;;;;;4895263;28;20130;-72
2021/04/11 13:02:54;;;;;;;6.50;1.60;;;21.30;56.80;;;;;;4894458;28;20029;-72
2021/04/11 13:05:34;;;;;;;5.60;1.70;;;21.80;56.00;;;;;;4895232;29;20032;-72
2021/04/11 13:08:02;;;;;;;3.25;1.58;;;22.00;54.10;;;;;;4959439;28;20127;-72
2021/04/11 13:10:37;;;;;;;8.07;1.73;;;22.00;54.70;;;;;;4894930;29;20028;-72
2021/04/11 13:13:20;;;;;;;6.18;1.75;;;21.90;54.90;;;;;;4894264;28;20060;-73
2021/04/11 13:16:00;;;;;;;6.45;1.80;;;21.70;54.90;;;;;;4894739;29;20072;-73
2021/04/11 13:18:37;;;;;;;;;;;21.70;55.30;;;;;;4959909;28;20380;-73
2021/04/11 13:21:28;;;;;;;3.42;1.52;;;21.90;53.90;;;;;;4893949;28;20002;-73
2021/04/11 13:24:13;;;;;;;4.70;1.60;;;22.10;53.60;;;;;;4959147;28;20028;-73
2021/04/11 13:26:48;;;;;;;4.50;1.65;;;22.00;54.50;;;;;;4959275;28;20025;-73
2021/04/11 13:29:48;;;;;;;3.83;1.58;;;21.80;55.30;;;;;;4894425;29;20368;-73
2021/04/11 13:32:33;;;;;;;4.32;1.58;;;21.80;54.30;;;;;;4950735;28;20095;-73
2021/04/11 13:35:26;;;;;;;3.80;1.35;;;21.60;53.50;;;;;;4894544;28;20024;-73
2021/04/11 13:38:00;;;;;;;5.32;1.60;;;21.50;54.10;;;;;;4894455;28;20118;-73
2021/04/11 13:40:28;;;;;;;3.30;1.48;;;21.60;54.30;;;;;;4958876;28;20115;-73